sensor_id;sensor_type;location;lat;lon;timestamp;temperature;humidity
33739;DHT22;20063;51.730;11.110;2023-05-29T00:00:31;12.50;99.90
33739;DHT22;20063;51.730;11.110;2023-05-29T00:02:57;12.40;99.90
33739;DHT22;20063;51.730;11.110;2023-05-29T00:05:23;12.40;99.90
33739;DHT22;20063;51.730;11.110;2023-05-29T00:07:50;12.40;99.90
33739;DHT22;20063;51.730;11.110;2023-05-29T00:10:16;12.40;99.90
33739;DHT22;20063;51.730;11.110;2023-05-29T00:12:42;12.40;99.90
33739;DHT22;20063;51.730;11.110;2023-05-29T00:15:08;12.30;99.90
33739;DHT22;20063;51.730;11.110;2023-05-29T00:17:35;12.30;99.90
33739;DHT22;20063;51.730;11.110;2023-05-29T00:20:02;12.30;99.90
33739;DHT22;20063;51.730;11.110;2023-05-29T00:22:48;12.20;99.90
33739;DHT22;20063;51.730;11.110;2023-05-29T00:25:18;12.20;99.90
33739;DHT22;20063;51.730;11.110;2023-05-29T00:27:43;12.10;99.90
33739;DHT22;20063;51.730;11.110;2023-05-29T00:30:09;12.10;99.90
33739;DHT22;20063;51.730;11.110;2023-05-29T00:32:35;12.10;99.90
33739;DHT22;20063;51.730;11.110;2023-05-29T00:35:04;12.10;99.90
33739;DHT22;20063;51.730;11.110;2023-05-29T00:37:30;12.00;99.90
33739;DHT22;20063;51.730;11.110;2023-05-29T00:39:55;12.00;99.90
33739;DHT22;20063;51.730;11.110;2023-05-29T00:42:21;11.90;99.90
33739;DHT22;20063;51.730;11.110;2023-05-29T00:44:50;11.90;99.90
33739;DHT22;20063;51.730;11.110;2023-05-29T00:47:15;11.90;99.90
33739;DHT22;20063;51.730;11.110;2023-05-29T00:49:41;11.90;99.90
33739;DHT22;20063;51.730;11.110;2023-05-29T00:52:07;11.90;99.90
33739;DHT22;20063;51.730;11.110;2023-05-29T00:54:34;11.90;99.90
33739;DHT22;20063;51.730;11.110;2023-05-29T00:57:01;11.80;99.90
33739;DHT22;20063;51.730;11.110;2023-05-29T00:59:31;11.80;99.90
33739;DHT22;20063;51.730;11.110;2023-05-29T01:01:58;11.80;99.90
33739;DHT22;20063;51.730;11.110;2023-05-29T01:04:25;11.70;99.90
33739;DHT22;20063;51.730;11.110;2023-05-29T01:06:51;11.70;99.90
33739;DHT22;20063;51.730;11.110;2023-05-29T01:09:17;11.60;99.90
33739;DHT22;20063;51.730;11.110;2023-05-29T01:12:03;11.70;99.90
33739;DHT22;20063;51.730;11.110;2023-05-29T01:14:36;11.70;99.90
33739;DHT22;20063;51.730;11.110;2023-05-29T01:22:46;11.60;99.90
33739;DHT22;20063;51.730;11.110;2023-05-29T01:25:24;11.60;99.90
33739;DHT22;20063;51.730;11.110;2023-05-29T01:28:24;11.60;99.90
33739;DHT22;20063;51.730;11.110;2023-05-29T01:30:51;11.60;99.90
33739;DHT22;20063;51.730;11.110;2023-05-29T01:33:19;11.60;99.90
33739;DHT22;20063;51.730;11.110;2023-05-29T01:35:45;11.60;99.90
33739;DHT22;20063;51.730;11.110;2023-05-29T01:38:11;11.60;99.90
33739;DHT22;20063;51.730;11.110;2023-05-29T01:40:37;11.50;99.90
33739;DHT22;20063;51.730;11.110;2023-05-29T01:43:03;11.50;99.90
33739;DHT22;20063;51.730;11.110;2023-05-29T01:45:30;11.50;99.90
33739;DHT22;20063;51.730;11.110;2023-05-29T01:47:56;11.60;99.90
33739;DHT22;20063;51.730;11.110;2023-05-29T01:50:24;11.60;99.90
33739;DHT22;20063;51.730;11.110;2023-05-29T01:52:50;11.50;99.90
33739;DHT22;20063;51.730;11.110;2023-05-29T01:55:16;11.50;99.90
33739;DHT22;20063;51.730;11.110;2023-05-29T01:57:42;11.50;99.90
33739;DHT22;20063;51.730;11.110;2023-05-29T02:00:09;11.50;99.90
33739;DHT22;20063;51.730;11.110;2023-05-29T02:02:40;11.50;99.90
33739;DHT22;20063;51.730;11.110;2023-05-29T02:05:07;11.50;99.90
33739;DHT22;20063;51.730;11.110;2023-05-29T02:07:34;11.50;99.90
33739;DHT22;20063;51.730;11.110;2023-05-29T02:09:59;11.60;99.90
33739;DHT22;20063;51.730;11.110;2023-05-29T02:12:25;11.60;99.90
33739;DHT22;20063;51.730;11.110;2023-05-29T02:14:51;11.60;99.90
33739;DHT22;20063;51.730;11.110;2023-05-29T02:17:17;11.60;99.90
33739;DHT22;20063;51.730;11.110;2023-05-29T02:19:44;11.70;99.90
33739;DHT22;20063;51.730;11.110;2023-05-29T02:22:10;11.70;99.90
33739;DHT22;20063;51.730;11.110;2023-05-29T02:24:35;11.80;99.90
33739;DHT22;20063;51.730;11.110;2023-05-29T02:27:01;11.80;99.90
33739;DHT22;20063;51.730;11.110;2023-05-29T02:29:28;11.90;99.90
33739;DHT22;20063;51.730;11.110;2023-05-29T02:31:53;11.90;99.90
33739;DHT22;20063;51.730;11.110;2023-05-29T02:34:19;11.90;99.90
33739;DHT22;20063;51.730;11.110;2023-05-29T02:36:51;11.90;99.90
33739;DHT22;20063;51.730;11.110;2023-05-29T02:39:20;11.90;99.90
33739;DHT22;20063;51.730;11.110;2023-05-29T02:41:45;11.90;99.90
33739;DHT22;20063;51.730;11.110;2023-05-29T02:44:11;11.90;99.90
33739;DHT22;20063;51.730;11.110;2023-05-29T02:46:37;11.90;99.90
33739;DHT22;20063;51.730;11.110;2023-05-29T02:49:02;11.90;99.90
33739;DHT22;20063;51.730;11.110;2023-05-29T02:51:28;11.80;99.90
33739;DHT22;20063;51.730;11.110;2023-05-29T02:53:54;11.80;99.90
33739;DHT22;20063;51.730;11.110;2023-05-29T02:56:19;11.80;99.90
33739;DHT22;20063;51.730;11.110;2023-05-29T02:58:50;11.90;99.90
33739;DHT22;20063;51.730;11.110;2023-05-29T03:01:15;11.90;99.90
33739;DHT22;20063;51.730;11.110;2023-05-29T03:03:41;11.90;99.90
33739;DHT22;20063;51.730;11.110;2023-05-29T03:06:06;11.80;99.90
33739;DHT22;20063;51.730;11.110;2023-05-29T03:08:34;11.80;99.90
33739;DHT22;20063;51.730;11.110;2023-05-29T03:11:00;11.80;99.90
33739;DHT22;20063;51.730;11.110;2023-05-29T03:13:26;11.80;99.90
33739;DHT22;20063;51.730;11.110;2023-05-29T03:15:52;11.80;99.90
33739;DHT22;20063;51.730;11.110;2023-05-29T03:18:22;11.80;99.90
33739;DHT22;20063;51.730;11.110;2023-05-29T03:20:49;11.70;99.90
33739;DHT22;20063;51.730;11.110;2023-05-29T03:23:15;11.70;99.90
33739;DHT22;20063;51.730;11.110;2023-05-29T03:25:40;11.70;99.90
33739;DHT22;20063;51.730;11.110;2023-05-29T03:28:06;11.60;99.90
33739;DHT22;20063;51.730;11.110;2023-05-29T03:30:31;11.60;99.90
33739;DHT22;20063;51.730;11.110;2023-05-29T03:32:57;11.60;99.90
33739;DHT22;20063;51.730;11.110;2023-05-29T03:35:29;11.60;99.90
33739;DHT22;20063;51.730;11.110;2023-05-29T03:37:55;11.70;99.90
33739;DHT22;20063;51.730;11.110;2023-05-29T03:40:21;11.60;99.90
33739;DHT22;20063;51.730;11.110;2023-05-29T03:42:46;11.60;99.90
33739;DHT22;20063;51.730;11.110;2023-05-29T03:45:12;11.60;99.90
33739;DHT22;20063;51.730;11.110;2023-05-29T03:47:38;11.60;99.90
33739;DHT22;20063;51.730;11.110;2023-05-29T03:50:04;11.60;99.90
33739;DHT22;20063;51.730;11.110;2023-05-29T03:52:29;11.50;99.90
33739;DHT22;20063;51.730;11.110;2023-05-29T03:54:55;11.60;99.90
33739;DHT22;20063;51.730;11.110;2023-05-29T03:57:21;11.60;99.90
33739;DHT22;20063;51.730;11.110;2023-05-29T03:59:46;11.60;99.90
33739;DHT22;20063;51.730;11.110;2023-05-29T04:02:12;11.60;99.90
33739;DHT22;20063;51.730;11.110;2023-05-29T04:04:37;11.60;99.90
33739;DHT22;20063;51.730;11.110;2023-05-29T04:07:05;11.60;99.90
33739;DHT22;20063;51.730;11.110;2023-05-29T04:09:32;11.70;99.90
33739;DHT22;20063;51.730;11.110;2023-05-29T04:11:58;11.60;99.90
33739;DHT22;20063;51.730;11.110;2023-05-29T04:14:25;11.70;99.90
33739;DHT22;20063;51.730;11.110;2023-05-29T04:16:51;11.70;99.90
33739;DHT22;20063;51.730;11.110;2023-05-29T04:19:16;11.80;99.90
33739;DHT22;20063;51.730;11.110;2023-05-29T04:21:42;11.80;99.90
33739;DHT22;20063;51.730;11.110;2023-05-29T04:24:08;11.90;99.90
33739;DHT22;20063;51.730;11.110;2023-05-29T04:26:34;11.90;99.90
33739;DHT22;20063;51.730;11.110;2023-05-29T04:28:59;11.90;99.90
33739;DHT22;20063;51.730;11.110;2023-05-29T04:31:26;11.90;99.90
33739;DHT22;20063;51.730;11.110;2023-05-29T04:33:55;11.90;99.90
33739;DHT22;20063;51.730;11.110;2023-05-29T04:36:24;12.00;99.90
33739;DHT22;20063;51.730;11.110;2023-05-29T04:38:53;12.10;99.90
33739;DHT22;20063;51.730;11.110;2023-05-29T04:41:19;12.10;99.90
33739;DHT22;20063;51.730;11.110;2023-05-29T04:43:44;12.10;99.90
33739;DHT22;20063;51.730;11.110;2023-05-29T04:46:11;12.10;99.90
33739;DHT22;20063;51.730;11.110;2023-05-29T04:48:40;12.20;99.90
33739;DHT22;20063;51.730;11.110;2023-05-29T04:51:06;12.20;99.90
33739;DHT22;20063;51.730;11.110;2023-05-29T04:53:39;12.20;99.90
33739;DHT22;20063;51.730;11.110;2023-05-29T04:56:08;12.30;99.90
33739;DHT22;20063;51.730;11.110;2023-05-29T04:58:34;12.40;99.90
33739;DHT22;20063;51.730;11.110;2023-05-29T05:01:00;12.40;99.90
33739;DHT22;20063;51.730;11.110;2023-05-29T05:03:28;12.40;99.90
33739;DHT22;20063;51.730;11.110;2023-05-29T05:05:54;12.40;99.90
33739;DHT22;20063;51.730;11.110;2023-05-29T05:08:20;12.40;99.90
33739;DHT22;20063;51.730;11.110;2023-05-29T05:10:45;12.40;99.90
33739;DHT22;20063;51.730;11.110;2023-05-29T05:13:11;12.40;99.90
33739;DHT22;20063;51.730;11.110;2023-05-29T05:15:38;12.50;99.90
33739;DHT22;20063;51.730;11.110;2023-05-29T05:18:03;12.50;99.90
33739;DHT22;20063;51.730;11.110;2023-05-29T05:20:29;12.50;99.90
33739;DHT22;20063;51.730;11.110;2023-05-29T05:22:57;12.50;99.90
33739;DHT22;20063;51.730;11.110;2023-05-29T05:25:25;12.60;99.90
33739;DHT22;20063;51.730;11.110;2023-05-29T05:27:50;12.60;99.90
33739;DHT22;20063;51.730;11.110;2023-05-29T05:30:16;12.60;99.90
33739;DHT22;20063;51.730;11.110;2023-05-29T05:32:41;12.60;99.90
33739;DHT22;20063;51.730;11.110;2023-05-29T05:35:07;12.60;99.90
33739;DHT22;20063;51.730;11.110;2023-05-29T05:37:35;12.70;99.90
33739;DHT22;20063;51.730;11.110;2023-05-29T05:40:01;12.70;99.90
33739;DHT22;20063;51.730;11.110;2023-05-29T05:42:26;12.70;99.90
33739;DHT22;20063;51.730;11.110;2023-05-29T05:45:01;12.70;99.90
33739;DHT22;20063;51.730;11.110;2023-05-29T05:47:26;12.70;99.90
33739;DHT22;20063;51.730;11.110;2023-05-29T05:49:53;12.70;99.90
33739;DHT22;20063;51.730;11.110;2023-05-29T05:52:20;12.80;99.90
33739;DHT22;20063;51.730;11.110;2023-05-29T05:54:46;12.80;99.90
33739;DHT22;20063;51.730;11.110;2023-05-29T05:57:11;12.80;99.90
33739;DHT22;20063;51.730;11.110;2023-05-29T05:59:37;12.90;99.90
33739;DHT22;20063;51.730;11.110;2023-05-29T06:02:04;12.90;99.90
33739;DHT22;20063;51.730;11.110;2023-05-29T06:04:30;12.90;99.90
33739;DHT22;20063;51.730;11.110;2023-05-29T06:07:10;13.00;99.90
33739;DHT22;20063;51.730;11.110;2023-05-29T06:09:36;13.10;99.90
33739;DHT22;20063;51.730;11.110;2023-05-29T06:12:02;13.10;99.90
33739;DHT22;20063;51.730;11.110;2023-05-29T06:14:28;13.10;99.90
33739;DHT22;20063;51.730;11.110;2023-05-29T06:16:53;13.20;99.90
33739;DHT22;20063;51.730;11.110;2023-05-29T06:19:20;13.20;99.90
33739;DHT22;20063;51.730;11.110;2023-05-29T06:21:45;13.20;99.90
33739;DHT22;20063;51.730;11.110;2023-05-29T06:24:12;13.30;99.90
33739;DHT22;20063;51.730;11.110;2023-05-29T06:26:40;13.30;99.90
33739;DHT22;20063;51.730;11.110;2023-05-29T06:29:06;13.30;99.90
33739;DHT22;20063;51.730;11.110;2023-05-29T06:31:32;13.40;99.90
33739;DHT22;20063;51.730;11.110;2023-05-29T06:33:58;13.40;99.90
33739;DHT22;20063;51.730;11.110;2023-05-29T06:36:24;13.50;99.90
33739;DHT22;20063;51.730;11.110;2023-05-29T06:38:50;13.50;99.90
33739;DHT22;20063;51.730;11.110;2023-05-29T06:41:16;13.60;99.90
33739;DHT22;20063;51.730;11.110;2023-05-29T06:43:42;13.70;99.90
33739;DHT22;20063;51.730;11.110;2023-05-29T06:46:08;13.70;99.90
33739;DHT22;20063;51.730;11.110;2023-05-29T06:48:36;13.70;99.90
33739;DHT22;20063;51.730;11.110;2023-05-29T06:51:03;13.80;99.90
33739;DHT22;20063;51.730;11.110;2023-05-29T06:53:38;13.80;99.90
33739;DHT22;20063;51.730;11.110;2023-05-29T06:56:04;13.80;99.90
33739;DHT22;20063;51.730;11.110;2023-05-29T06:58:30;13.90;99.90
33739;DHT22;20063;51.730;11.110;2023-05-29T07:00:57;13.90;99.90
33739;DHT22;20063;51.730;11.110;2023-05-29T07:03:23;13.90;99.90
33739;DHT22;20063;51.730;11.110;2023-05-29T07:05:49;14.00;99.90
33739;DHT22;20063;51.730;11.110;2023-05-29T07:08:15;14.10;99.90
33739;DHT22;20063;51.730;11.110;2023-05-29T07:10:40;14.10;99.90
33739;DHT22;20063;51.730;11.110;2023-05-29T07:13:06;14.10;99.90
33739;DHT22;20063;51.730;11.110;2023-05-29T07:15:32;14.20;99.90
33739;DHT22;20063;51.730;11.110;2023-05-29T07:17:57;14.20;99.90
33739;DHT22;20063;51.730;11.110;2023-05-29T07:20:23;14.30;99.90
33739;DHT22;20063;51.730;11.110;2023-05-29T07:22:48;14.30;99.90
33739;DHT22;20063;51.730;11.110;2023-05-29T07:25:14;14.40;99.90
33739;DHT22;20063;51.730;11.110;2023-05-29T07:27:40;14.40;99.90
33739;DHT22;20063;51.730;11.110;2023-05-29T07:30:07;14.50;99.90
33739;DHT22;20063;51.730;11.110;2023-05-29T07:32:33;14.50;99.90
33739;DHT22;20063;51.730;11.110;2023-05-29T07:34:59;14.50;99.90
33739;DHT22;20063;51.730;11.110;2023-05-29T07:37:25;14.50;99.90
33739;DHT22;20063;51.730;11.110;2023-05-29T07:39:50;14.60;99.90
33739;DHT22;20063;51.730;11.110;2023-05-29T07:42:16;14.70;99.90
33739;DHT22;20063;51.730;11.110;2023-05-29T07:44:42;14.70;99.90
33739;DHT22;20063;51.730;11.110;2023-05-29T07:47:08;14.80;99.90
33739;DHT22;20063;51.730;11.110;2023-05-29T07:49:34;14.80;99.90
33739;DHT22;20063;51.730;11.110;2023-05-29T07:52:01;14.90;99.90
33739;DHT22;20063;51.730;11.110;2023-05-29T07:54:27;14.90;99.90
33739;DHT22;20063;51.730;11.110;2023-05-29T07:56:52;15.00;99.90
33739;DHT22;20063;51.730;11.110;2023-05-29T07:59:18;15.10;99.90
33739;DHT22;20063;51.730;11.110;2023-05-29T08:01:44;15.10;99.90
33739;DHT22;20063;51.730;11.110;2023-05-29T08:04:11;15.10;99.90
33739;DHT22;20063;51.730;11.110;2023-05-29T08:06:37;15.20;99.90
33739;DHT22;20063;51.730;11.110;2023-05-29T08:09:03;15.20;99.90
33739;DHT22;20063;51.730;11.110;2023-05-29T08:11:30;15.30;99.90
33739;DHT22;20063;51.730;11.110;2023-05-29T08:13:55;15.40;99.90
33739;DHT22;20063;51.730;11.110;2023-05-29T08:16:21;15.40;99.90
33739;DHT22;20063;51.730;11.110;2023-05-29T08:18:50;15.40;99.90
33739;DHT22;20063;51.730;11.110;2023-05-29T08:21:16;15.50;99.90
33739;DHT22;20063;51.730;11.110;2023-05-29T08:23:41;15.50;99.90
33739;DHT22;20063;51.730;11.110;2023-05-29T08:26:07;15.50;99.90
33739;DHT22;20063;51.730;11.110;2023-05-29T08:28:32;15.60;99.90
33739;DHT22;20063;51.730;11.110;2023-05-29T08:30:58;15.70;99.90
33739;DHT22;20063;51.730;11.110;2023-05-29T08:33:23;15.80;99.90
33739;DHT22;20063;51.730;11.110;2023-05-29T08:35:50;15.90;99.90
33739;DHT22;20063;51.730;11.110;2023-05-29T08:38:16;15.90;99.90
33739;DHT22;20063;51.730;11.110;2023-05-29T08:40:42;15.90;99.90
33739;DHT22;20063;51.730;11.110;2023-05-29T08:43:21;15.90;99.90
33739;DHT22;20063;51.730;11.110;2023-05-29T08:45:48;16.00;99.90
33739;DHT22;20063;51.730;11.110;2023-05-29T08:48:17;16.00;99.90
33739;DHT22;20063;51.730;11.110;2023-05-29T08:50:45;16.10;99.90
33739;DHT22;20063;51.730;11.110;2023-05-29T08:53:13;16.10;99.90
33739;DHT22;20063;51.730;11.110;2023-05-29T08:55:39;16.20;99.90
33739;DHT22;20063;51.730;11.110;2023-05-29T08:58:05;16.20;99.90
33739;DHT22;20063;51.730;11.110;2023-05-29T09:00:31;16.30;99.90
33739;DHT22;20063;51.730;11.110;2023-05-29T09:02:57;16.30;99.90
33739;DHT22;20063;51.730;11.110;2023-05-29T09:05:24;16.40;99.90
33739;DHT22;20063;51.730;11.110;2023-05-29T09:07:55;16.40;99.90
33739;DHT22;20063;51.730;11.110;2023-05-29T09:10:21;16.50;99.90
33739;DHT22;20063;51.730;11.110;2023-05-29T09:12:49;16.60;99.90
33739;DHT22;20063;51.730;11.110;2023-05-29T09:15:20;16.70;99.90
33739;DHT22;20063;51.730;11.110;2023-05-29T09:17:57;16.70;99.90
33739;DHT22;20063;51.730;11.110;2023-05-29T09:20:23;16.70;99.90
33739;DHT22;20063;51.730;11.110;2023-05-29T09:25:22;16.70;99.90
33739;DHT22;20063;51.730;11.110;2023-05-29T09:28:04;16.70;99.90
33739;DHT22;20063;51.730;11.110;2023-05-29T09:33:04;16.90;99.90
33739;DHT22;20063;51.730;11.110;2023-05-29T09:35:34;16.90;99.90
33739;DHT22;20063;51.730;11.110;2023-05-29T09:38:01;17.00;99.90
33739;DHT22;20063;51.730;11.110;2023-05-29T09:40:29;17.10;99.90
33739;DHT22;20063;51.730;11.110;2023-05-29T09:42:54;17.20;99.90
33739;DHT22;20063;51.730;11.110;2023-05-29T09:45:21;17.20;99.90
33739;DHT22;20063;51.730;11.110;2023-05-29T09:48:12;17.30;99.90
33739;DHT22;20063;51.730;11.110;2023-05-29T09:50:39;17.30;99.90
33739;DHT22;20063;51.730;11.110;2023-05-29T09:53:19;17.30;99.90
33739;DHT22;20063;51.730;11.110;2023-05-29T09:55:46;17.30;99.90
33739;DHT22;20063;51.730;11.110;2023-05-29T09:58:20;17.40;99.90
33739;DHT22;20063;51.730;11.110;2023-05-29T10:00:46;17.40;99.90
33739;DHT22;20063;51.730;11.110;2023-05-29T10:03:16;17.40;99.90
33739;DHT22;20063;51.730;11.110;2023-05-29T10:05:43;17.50;99.90
33739;DHT22;20063;51.730;11.110;2023-05-29T10:08:12;17.50;99.90
33739;DHT22;20063;51.730;11.110;2023-05-29T10:10:42;17.50;99.90
33739;DHT22;20063;51.730;11.110;2023-05-29T10:13:11;17.60;99.90
33739;DHT22;20063;51.730;11.110;2023-05-29T10:15:37;17.60;99.90
33739;DHT22;20063;51.730;11.110;2023-05-29T10:18:21;17.70;99.90
33739;DHT22;20063;51.730;11.110;2023-05-29T10:20:53;17.70;99.90
33739;DHT22;20063;51.730;11.110;2023-05-29T10:23:23;17.80;99.90
33739;DHT22;20063;51.730;11.110;2023-05-29T10:25:52;17.80;99.90
33739;DHT22;20063;51.730;11.110;2023-05-29T10:28:20;18.00;99.90
33739;DHT22;20063;51.730;11.110;2023-05-29T10:30:53;18.10;99.90
33739;DHT22;20063;51.730;11.110;2023-05-29T10:36:22;18.20;99.90
33739;DHT22;20063;51.730;11.110;2023-05-29T10:38:53;18.20;99.90
33739;DHT22;20063;51.730;11.110;2023-05-29T10:44:02;18.20;99.90
33739;DHT22;20063;51.730;11.110;2023-05-29T10:49:26;18.30;99.90
33739;DHT22;20063;51.730;11.110;2023-05-29T10:51:52;18.30;99.90
33739;DHT22;20063;51.730;11.110;2023-05-29T10:54:25;18.30;99.90
33739;DHT22;20063;51.730;11.110;2023-05-29T10:56:58;18.40;99.90
33739;DHT22;20063;51.730;11.110;2023-05-29T10:59:36;18.50;99.90
33739;DHT22;20063;51.730;11.110;2023-05-29T11:02:03;18.60;99.90
33739;DHT22;20063;51.730;11.110;2023-05-29T11:04:31;18.60;99.90
33739;DHT22;20063;51.730;11.110;2023-05-29T11:06:58;18.60;99.90
33739;DHT22;20063;51.730;11.110;2023-05-29T11:09:33;18.60;99.90
33739;DHT22;20063;51.730;11.110;2023-05-29T11:12:37;18.70;99.90
33739;DHT22;20063;51.730;11.110;2023-05-29T11:15:10;18.80;99.90
33739;DHT22;20063;51.730;11.110;2023-05-29T11:20:16;18.90;99.90
33739;DHT22;20063;51.730;11.110;2023-05-29T11:23:00;18.80;99.90
33739;DHT22;20063;51.730;11.110;2023-05-29T11:25:28;18.80;99.90
33739;DHT22;20063;51.730;11.110;2023-05-29T11:27:53;18.70;99.90
33739;DHT22;20063;51.730;11.110;2023-05-29T11:30:20;18.70;99.90
33739;DHT22;20063;51.730;11.110;2023-05-29T11:32:46;18.70;99.90
33739;DHT22;20063;51.730;11.110;2023-05-29T11:35:13;18.70;99.90
33739;DHT22;20063;51.730;11.110;2023-05-29T11:37:39;18.70;99.90
33739;DHT22;20063;51.730;11.110;2023-05-29T11:40:08;18.80;99.90
33739;DHT22;20063;51.730;11.110;2023-05-29T11:42:44;18.80;99.90
33739;DHT22;20063;51.730;11.110;2023-05-29T11:45:13;18.80;99.90
33739;DHT22;20063;51.730;11.110;2023-05-29T11:47:58;18.80;99.90
33739;DHT22;20063;51.730;11.110;2023-05-29T11:50:28;18.70;99.90
33739;DHT22;20063;51.730;11.110;2023-05-29T11:52:56;18.70;99.90
33739;DHT22;20063;51.730;11.110;2023-05-29T11:55:22;18.80;99.90
33739;DHT22;20063;51.730;11.110;2023-05-29T11:57:59;18.80;99.90
33739;DHT22;20063;51.730;11.110;2023-05-29T12:00:26;18.90;99.90
33739;DHT22;20063;51.730;11.110;2023-05-29T12:02:57;18.90;99.90
33739;DHT22;20063;51.730;11.110;2023-05-29T12:05:23;18.80;99.90
33739;DHT22;20063;51.730;11.110;2023-05-29T12:07:53;18.70;99.90
33739;DHT22;20063;51.730;11.110;2023-05-29T12:10:20;18.70;99.90
33739;DHT22;20063;51.730;11.110;2023-05-29T12:13:00;18.80;99.90
33739;DHT22;20063;51.730;11.110;2023-05-29T12:15:28;18.90;99.90
33739;DHT22;20063;51.730;11.110;2023-05-29T12:17:55;18.90;99.90
33739;DHT22;20063;51.730;11.110;2023-05-29T12:20:24;19.00;99.90
33739;DHT22;20063;51.730;11.110;2023-05-29T12:22:52;19.10;99.90
33739;DHT22;20063;51.730;11.110;2023-05-29T12:25:21;19.10;99.90
33739;DHT22;20063;51.730;11.110;2023-05-29T12:27:48;19.10;99.90
33739;DHT22;20063;51.730;11.110;2023-05-29T12:30:19;19.20;99.90
33739;DHT22;20063;51.730;11.110;2023-05-29T12:32:47;19.30;99.90
33739;DHT22;20063;51.730;11.110;2023-05-29T12:35:16;19.40;99.90
33739;DHT22;20063;51.730;11.110;2023-05-29T12:37:47;19.40;99.90
33739;DHT22;20063;51.730;11.110;2023-05-29T12:40:22;19.50;99.90
33739;DHT22;20063;51.730;11.110;2023-05-29T12:42:52;19.60;99.90
33739;DHT22;20063;51.730;11.110;2023-05-29T12:45:18;19.70;99.90
33739;DHT22;20063;51.730;11.110;2023-05-29T12:48:00;19.60;99.90
33739;DHT22;20063;51.730;11.110;2023-05-29T12:53:05;19.40;99.90
33739;DHT22;20063;51.730;11.110;2023-05-29T12:55:33;19.40;99.90
33739;DHT22;20063;51.730;11.110;2023-05-29T12:57:59;19.40;99.90
33739;DHT22;20063;51.730;11.110;2023-05-29T13:00:27;19.40;99.90
33739;DHT22;20063;51.730;11.110;2023-05-29T13:02:56;19.40;99.90
33739;DHT22;20063;51.730;11.110;2023-05-29T13:05:22;19.40;99.90
33739;DHT22;20063;51.730;11.110;2023-05-29T13:07:50;19.30;99.90
33739;DHT22;20063;51.730;11.110;2023-05-29T13:10:18;19.20;99.90
33739;DHT22;20063;51.730;11.110;2023-05-29T13:12:44;19.20;99.90
33739;DHT22;20063;51.730;11.110;2023-05-29T13:15:11;19.30;99.90
33739;DHT22;20063;51.730;11.110;2023-05-29T13:17:38;19.40;99.90
33739;DHT22;20063;51.730;11.110;2023-05-29T13:20:10;19.40;99.90
33739;DHT22;20063;51.730;11.110;2023-05-29T13:22:37;19.50;99.90
33739;DHT22;20063;51.730;11.110;2023-05-29T13:25:03;19.80;99.90
33739;DHT22;20063;51.730;11.110;2023-05-29T13:27:32;19.80;99.90
33739;DHT22;20063;51.730;11.110;2023-05-29T13:29:57;19.90;99.90
33739;DHT22;20063;51.730;11.110;2023-05-29T13:32:23;19.90;99.90
33739;DHT22;20063;51.730;11.110;2023-05-29T13:34:48;20.00;99.90
33739;DHT22;20063;51.730;11.110;2023-05-29T13:37:14;20.10;99.90
33739;DHT22;20063;51.730;11.110;2023-05-29T13:39:40;20.10;99.90
33739;DHT22;20063;51.730;11.110;2023-05-29T13:42:06;20.10;99.90
33739;DHT22;20063;51.730;11.110;2023-05-29T13:44:32;20.00;99.90
33739;DHT22;20063;51.730;11.110;2023-05-29T13:46:58;19.90;99.90
33739;DHT22;20063;51.730;11.110;2023-05-29T13:49:25;19.90;99.90
33739;DHT22;20063;51.730;11.110;2023-05-29T13:51:50;19.90;99.90
33739;DHT22;20063;51.730;11.110;2023-05-29T13:54:16;19.90;99.90
33739;DHT22;20063;51.730;11.110;2023-05-29T13:56:43;19.90;99.90
33739;DHT22;20063;51.730;11.110;2023-05-29T13:59:09;19.90;99.90
33739;DHT22;20063;51.730;11.110;2023-05-29T14:01:36;20.00;99.90
33739;DHT22;20063;51.730;11.110;2023-05-29T14:04:01;20.00;99.90
33739;DHT22;20063;51.730;11.110;2023-05-29T14:06:27;20.10;99.90
33739;DHT22;20063;51.730;11.110;2023-05-29T14:08:53;20.00;99.90
33739;DHT22;20063;51.730;11.110;2023-05-29T14:11:19;20.00;99.90
33739;DHT22;20063;51.730;11.110;2023-05-29T14:13:45;20.00;99.90
33739;DHT22;20063;51.730;11.110;2023-05-29T14:16:11;19.90;99.90
33739;DHT22;20063;51.730;11.110;2023-05-29T14:18:36;19.80;99.90
33739;DHT22;20063;51.730;11.110;2023-05-29T14:21:05;19.70;99.90
33739;DHT22;20063;51.730;11.110;2023-05-29T14:23:30;19.70;99.90
33739;DHT22;20063;51.730;11.110;2023-05-29T14:25:56;19.60;99.90
33739;DHT22;20063;51.730;11.110;2023-05-29T14:28:21;19.50;99.90
33739;DHT22;20063;51.730;11.110;2023-05-29T14:30:47;19.40;99.90
33739;DHT22;20063;51.730;11.110;2023-05-29T14:33:13;19.40;99.90
33739;DHT22;20063;51.730;11.110;2023-05-29T14:35:38;19.40;99.90
33739;DHT22;20063;51.730;11.110;2023-05-29T14:38:04;19.50;99.90
33739;DHT22;20063;51.730;11.110;2023-05-29T14:40:29;19.50;99.90
33739;DHT22;20063;51.730;11.110;2023-05-29T14:42:56;19.60;99.90
33739;DHT22;20063;51.730;11.110;2023-05-29T14:45:22;19.70;99.90
33739;DHT22;20063;51.730;11.110;2023-05-29T14:47:47;19.80;99.90
33739;DHT22;20063;51.730;11.110;2023-05-29T14:50:13;19.90;99.90
33739;DHT22;20063;51.730;11.110;2023-05-29T14:52:40;20.10;99.90
33739;DHT22;20063;51.730;11.110;2023-05-29T14:55:09;20.10;99.90
33739;DHT22;20063;51.730;11.110;2023-05-29T14:57:35;20.20;99.90
33739;DHT22;20063;51.730;11.110;2023-05-29T15:00:03;20.10;99.90
33739;DHT22;20063;51.730;11.110;2023-05-29T15:02:31;20.20;99.90
33739;DHT22;20063;51.730;11.110;2023-05-29T15:04:57;20.40;99.90
33739;DHT22;20063;51.730;11.110;2023-05-29T15:07:22;20.40;99.90
33739;DHT22;20063;51.730;11.110;2023-05-29T15:09:48;20.30;99.90
33739;DHT22;20063;51.730;11.110;2023-05-29T15:12:13;20.30;99.60
33739;DHT22;20063;51.730;11.110;2023-05-29T15:14:39;20.20;97.80
33739;DHT22;20063;51.730;11.110;2023-05-29T15:17:05;20.00;99.90
33739;DHT22;20063;51.730;11.110;2023-05-29T15:19:30;20.00;99.90
33739;DHT22;20063;51.730;11.110;2023-05-29T15:21:57;20.20;99.90
33739;DHT22;20063;51.730;11.110;2023-05-29T15:24:23;20.10;99.90
33739;DHT22;20063;51.730;11.110;2023-05-29T15:26:49;20.20;99.90
33739;DHT22;20063;51.730;11.110;2023-05-29T15:29:16;20.20;99.80
33739;DHT22;20063;51.730;11.110;2023-05-29T15:31:42;20.20;99.90
33739;DHT22;20063;51.730;11.110;2023-05-29T15:34:07;20.20;99.10
33739;DHT22;20063;51.730;11.110;2023-05-29T15:36:33;20.20;99.90
33739;DHT22;20063;51.730;11.110;2023-05-29T15:38:59;20.20;99.60
33739;DHT22;20063;51.730;11.110;2023-05-29T15:41:28;20.20;98.20